Argyle, NY

7:03 PM EDT on May 27, 2015 (GMT -0400)
Morse State | | Change Station
CLOSE
Current Station
Airport
Location: Bennington,
Elevation: 827 ft
Nearby Weather Stations

Elev 827 ft 42.89 °N, 73.25 °W | Updated 9 minutes ago

Overcast
Overcast
70 °F
Feels Like 70 °F
N
4
Wind Variable Wind from Variable

Today
High -- | Low -- °F
--% Chance of Precip.
Yesterday
High -- | Low -- °F
Precip. -- in
5:19 AM 8:22 PM
Waxing Gibbous, 71% visible
Pressure 30.07 in
Visibility 6.0 miles
Clouds Few 6000 ft
Scattered Clouds 7500 ft
Mostly Cloudy 11000 ft
Dew Point 63 °F
Humidity 78%
Rainfall 0.01 in
Snow Depth Not available.
UV 0 out of 12
Pollen 6.60 out of 12
Air Quality Not available.
Flu Activity Widespread
METAR KDDH 272254Z AUTO VRB03KT 6SM -RA FEW060 SCT075 BKN110 21/17 A3008 RMK AO2 LTG DSNT E-S RAE29B41 SLP181 P0001 T02110172

More Conditions Fewer Conditions

Pressure 30.07 in
Visibility 6.0 miles
Clouds Few 6000 ft
Scattered Clouds 7500 ft
Mostly Cloudy 11000 ft
Dew Point 63 °F
Humidity 78%
Rainfall 0.01 in
Snow Depth Not available.
UV 0 out of 12
Pollen 6.60 out of 12
Air Quality Not available.
Flu Activity Widespread
METAR KDDH 272254Z AUTO VRB03KT 6SM -RA FEW060 SCT075 BKN110 21/17 A3008 RMK AO2 LTG DSNT E-S RAE29B41 SLP181 P0001 T02110172

More Conditions Fewer Conditions

10-Day Weather Forecast

Almanac

Astronomy

May. 27, 2015 Rise Set
Actual Time
Civil Twilight
Nautical Twilight
Astronomical Twilight
Moon
Length of Visible Light
Length of Day
Tomorrow will be .
, % of the Moon is Illuminated

Today's Extremes

State Highs State Lows

Community

WunderPhotos

Upload Photos

1,824,815 photos uploaded!

WunderBlogs® & News

Nearby

Air Quality

  Air Quality AQ Index Pollutant
Not available.

Snow Depth

Station Depth Elevation

Earthquake Activity

City Distance Mag. Time & Date
Minimum magnitude displayed is 2.5.

Coastal Water Temperatures

Place Temperature

Stations

Nearby Weather Stations

Station Location Temp. Windchill Dew Point Humidity Wind Precip. Elev Updated Type